Time;durP1;ratioP1;P1;durP2;ratioP2;P2;SDS_P1;SDS_P2;PMS_P1;PMS_P2;Temp;Humidity;BMP_temperature;BMP_pressure;BME280_temperature;BME280_humidity;BME280_pressure;Samples;Min_cycle;Max_cycle;Signal;HPM_P1;HPM_P2
2022/01/18 00:01:36;;;;;;;61.50;11.33;;;8.50;99.90;;;;;;5072335;28;20338;-85
2022/01/18 00:04:03;;;;;;;63.80;11.17;;;8.50;99.90;;;;;;5076262;28;20235;-88
2022/01/18 00:06:30;;;;;;;58.77;9.63;;;8.70;99.90;;;;;;5076693;28;20216;-87
2022/01/18 00:08:56;;;;;;;56.67;11.60;;;8.50;99.90;;;;;;5074683;28;20255;-86
2022/01/18 00:11:26;;;;;;;59.63;11.47;;;8.50;99.90;;;;;;5070374;28;20233;-87
2022/01/18 00:14:01;;;;;;;66.70;12.00;;;;;;;;;;5073050;28;20228;-86
2022/01/18 00:16:31;;;;;;;57.63;11.17;;;8.50;99.90;;;;;;5065943;28;20299;-87
2022/01/18 00:19:07;;;;;;;65.80;11.13;;;8.50;99.90;;;;;;5069254;28;20275;-87
2022/01/18 00:21:49;;;;;;;61.93;11.17;;;8.50;99.90;;;;;;5071315;28;20296;-87
2022/01/18 00:24:16;;;;;;;61.93;10.83;;;8.50;99.90;;;;;;5069036;28;20244;-87
2022/01/18 00:26:43;;;;;;;61.40;10.63;;;8.50;99.90;;;;;;5068678;28;20753;-87
2022/01/18 00:29:12;;;;;;;53.50;9.97;;;;;;;;;;5069489;28;20205;-86
2022/01/18 00:32:00;;;;;;;62.87;11.10;;;8.50;99.90;;;;;;5069331;28;20274;-86
2022/01/18 00:34:31;;;;;;;60.97;10.90;;;8.40;99.90;;;;;;5064650;28;20919;-86
2022/01/18 00:37:12;;;;;;;58.70;10.37;;;8.40;99.90;;;;;;5073164;28;20208;-86
2022/01/18 00:39:40;;;;;;;67.77;11.60;;;8.40;99.90;;;;;;5073012;28;20208;-86
2022/01/18 00:42:09;;;;;;;44.57;8.17;;;8.40;99.90;;;;;;5071884;28;20200;-86
2022/01/18 00:44:36;;;;;;;62.00;11.87;;;8.40;99.90;;;;;;5070345;28;20230;-87
2022/01/18 00:47:04;;;;;;;70.27;13.73;;;8.40;99.90;;;;;;5074136;28;20205;-87
2022/01/18 00:49:39;;;;;;;57.13;10.57;;;8.40;99.90;;;;;;5078575;28;20205;-87
2022/01/18 00:52:07;;;;;;;58.07;9.53;;;8.40;99.90;;;;;;5074539;28;20232;-86
2022/01/18 00:54:39;;;;;;;67.47;12.27;;;8.40;99.90;;;;;;5067832;28;20235;-86
2022/01/18 00:57:07;;;;;;;54.63;10.90;;;8.40;99.90;;;;;;5075565;28;20216;-87
2022/01/18 00:59:34;;;;;;;55.40;10.70;;;8.40;99.90;;;;;;5070772;28;20628;-87
2022/01/18 01:02:01;;;;;;;45.63;9.27;;;8.40;99.90;;;;;;5064886;28;20225;-87
2022/01/18 01:04:31;;;;;;;63.57;11.70;;;8.30;99.90;;;;;;5066650;28;20236;-87
2022/01/18 01:07:00;;;;;;;57.63;11.17;;;6.80;99.90;;;;;;5066395;28;20217;-86
2022/01/18 01:09:27;;;;;;;57.80;11.40;;;8.40;99.90;;;;;;5070496;28;20696;-86
2022/01/18 01:11:53;;;;;;;74.70;14.87;;;8.30;99.90;;;;;;5067363;28;20224;-87
2022/01/18 01:14:24;;;;;;;67.57;13.43;;;8.40;99.90;;;;;;5067967;28;20631;-87
2022/01/18 01:16:59;;;;;;;62.40;11.63;;;8.40;99.90;;;;;;5068249;28;20210;-86
2022/01/18 01:19:47;;;;;;;76.40;14.40;;;8.40;99.90;;;;;;5067305;28;20679;-86
2022/01/18 01:36:12;;;;;;;66.53;12.67;;;8.40;99.90;;;;;;5066625;28;20752;-87
2022/01/18 01:44:24;;;;;;;68.10;13.57;;;;;;;;;;5062072;28;20258;-87
2022/01/18 01:46:51;;;;;;;76.80;13.47;;;8.40;99.90;;;;;;5067002;28;20214;-87
2022/01/18 01:49:19;;;;;;;59.30;12.73;;;8.40;99.90;;;;;;5066014;28;20751;-86
2022/01/18 01:51:48;;;;;;;63.43;12.67;;;8.40;99.90;;;;;;5068915;28;20279;-86
2022/01/18 01:54:17;;;;;;;62.20;11.93;;;8.40;99.90;;;;;;5069553;28;20228;-86
2022/01/18 01:56:44;;;;;;;71.60;13.43;;;8.50;99.90;;;;;;5067518;28;20217;-86
2022/01/18 01:59:11;;;;;;;53.77;10.37;;;8.50;99.90;;;;;;5068639;28;20314;-87
2022/01/18 02:01:47;;;;;;;71.17;13.70;;;8.40;99.90;;;;;;5067784;28;20298;-86
2022/01/18 02:04:14;;;;;;;57.73;11.67;;;8.40;99.90;;;;;;5066747;28;20343;-86
2022/01/18 02:06:41;;;;;;;58.40;11.43;;;8.40;99.90;;;;;;5071129;28;20192;-87
2022/01/18 02:09:08;;;;;;;59.73;10.80;;;8.40;99.90;;;;;;5067296;28;20212;-87
2022/01/18 02:11:37;;;;;;;64.57;10.80;;;8.40;99.90;;;;;;5067259;28;20235;-86
2022/01/18 02:14:05;;;;;;;60.33;11.13;;;8.40;99.90;;;;;;5067262;28;20229;-86
2022/01/18 02:22:13;;;;;;;58.40;11.70;;;8.40;99.90;;;;;;5070909;28;20198;-87
2022/01/18 02:24:41;;;;;;;68.90;11.73;;;8.30;99.90;;;;;;5067511;28;20617;-87
2022/01/18 02:27:08;;;;;;;57.03;10.23;;;8.30;99.90;;;;;;5060176;28;20213;-87
2022/01/18 02:29:35;;;;;;;64.73;11.57;;;8.30;99.90;;;;;;5068256;28;20278;-86
2022/01/18 02:32:03;;;;;;;61.17;10.63;;;8.30;99.90;;;;;;5067652;28;20256;-87
2022/01/18 02:34:30;;;;;;;65.23;11.23;;;8.30;99.90;;;;;;5068562;28;20329;-86
2022/01/18 02:36:57;;;;;;;67.77;12.47;;;9.00;99.90;;;;;;5068561;28;20212;-86
2022/01/18 02:39:28;;;;;;;73.73;12.80;;;8.30;99.90;;;;;;5069088;28;20339;-86
2022/01/18 02:41:57;;;;;;;77.53;14.80;;;8.30;99.90;;;;;;5072656;28;20582;-86
2022/01/18 02:44:25;;;;;;;73.70;13.03;;;8.30;99.90;;;;;;5071609;28;20236;-86
2022/01/18 02:46:52;;;;;;;78.50;13.97;;;10.00;99.90;;;;;;5071507;28;20216;-87
2022/01/18 02:49:19;;;;;;;69.60;12.47;;;8.30;99.90;;;;;;5066646;28;20208;-86
2022/01/18 02:51:46;;;;;;;68.87;12.37;;;8.30;99.90;;;;;;5071064;28;20312;-86
2022/01/18 02:54:15;;;;;;;67.87;12.17;;;8.30;99.90;;;;;;5072725;28;20222;-86
2022/01/18 02:56:47;;;;;;;51.67;10.07;;;8.30;99.90;;;;;;5072499;28;20219;-87
2022/01/18 02:59:20;;;;;;;54.83;9.83;;;8.30;99.90;;;;;;5071775;28;20213;-87
2022/01/18 03:04:37;;;;;;;65.10;12.13;;;8.30;99.90;;;;;;5070413;28;21485;-86
2022/01/18 03:07:04;;;;;;;63.83;12.67;;;8.20;99.90;;;;;;5071541;28;20205;-86
2022/01/18 03:09:31;;;;;;;59.43;11.90;;;8.20;99.90;;;;;;5070302;28;20209;-86
2022/01/18 03:11:59;;;;;;;61.50;11.37;;;8.20;99.90;;;;;;5072868;28;20684;-86
2022/01/18 03:14:26;;;;;;;56.43;10.40;;;8.10;99.90;;;;;;5070699;28;20231;-86
2022/01/18 03:16:53;;;;;;;68.20;12.27;;;8.10;99.90;;;;;;5071600;28;20546;-86
2022/01/18 03:19:20;;;;;;;69.03;12.93;;;8.10;99.90;;;;;;5065352;28;20736;-87
2022/01/18 03:21:49;;;;;;;59.40;11.03;;;8.10;99.90;;;;;;5068323;28;20787;-86
2022/01/18 03:24:32;;;;;;;63.83;10.47;;;8.10;99.90;;;;;;5070260;28;20236;-87
2022/01/18 03:29:47;;;;;;;46.00;8.53;;;8.10;99.90;;;;;;5075134;28;20199;-87
2022/01/18 03:32:14;;;;;;;57.97;11.20;;;8.10;99.90;;;;;;5093497;28;20250;-88
2022/01/18 03:34:40;;;;;;;57.83;11.63;;;8.10;99.90;;;;;;5085749;28;20275;-86
2022/01/18 03:37:07;;;;;;;47.00;9.70;;;8.10;99.90;;;;;;5069324;28;20216;-86
2022/01/18 03:39:34;;;;;;;68.87;13.13;;;8.00;99.90;;;;;;5072033;28;20210;-87
2022/01/18 03:42:32;;;;;;;67.83;13.37;;;8.00;99.90;;;;;;5073330;28;20326;-86
2022/01/18 03:45:02;;;;;;;69.97;12.17;;;8.00;99.90;;;;;;5072482;28;20243;-86
2022/01/18 03:47:29;;;;;;;52.17;9.77;;;8.00;99.90;;;;;;5075060;28;20206;-86
2022/01/18 03:49:56;;;;;;;63.50;11.83;;;8.00;99.90;;;;;;5072533;28;20209;-86
2022/01/18 03:52:23;;;;;;;55.50;10.30;;;8.60;99.90;;;;;;5070711;28;20229;-86
2022/01/18 03:54:50;;;;;;;63.70;11.80;;;8.00;99.90;;;;;;5068382;28;20232;-87
2022/01/18 03:57:18;;;;;;;56.00;10.87;;;8.00;99.90;;;;;;5077920;28;20224;-87
2022/01/18 03:59:46;;;;;;;64.10;11.80;;;8.10;99.90;;;;;;5072097;28;20709;-86
2022/01/18 04:02:14;;;;;;;60.23;11.30;;;8.10;99.90;;;;;;5070649;28;20208;-87
2022/01/18 04:04:41;;;;;;;58.83;11.60;;;8.00;99.90;;;;;;5067498;28;20225;-87
2022/01/18 04:07:08;;;;;;;55.60;11.10;;;8.00;99.90;;;;;;5069718;28;20223;-86
2022/01/18 04:09:36;;;;;;;63.40;11.03;;;8.00;99.90;;;;;;5068503;28;20220;-86
2022/01/18 04:12:03;;;;;;;58.40;11.37;;;8.00;99.90;;;;;;5068644;28;20236;-86
2022/01/18 04:14:32;;;;;;;59.90;10.87;;;;;;;;;;5087905;28;20275;-87
2022/01/18 04:17:06;;;;;;;70.70;12.23;;;7.90;99.90;;;;;;5071658;28;20295;-87
2022/01/18 04:27:56;;;;;;;42.87;7.87;;;7.90;99.90;;;;;;5066494;28;20205;-86
2022/01/18 04:30:25;;;;;;;52.80;9.43;;;7.80;99.90;;;;;;5066830;28;20288;-84
2022/01/18 04:32:52;;;;;;;86.27;13.83;;;7.80;99.90;;;;;;5068853;28;20290;-85
2022/01/18 04:35:19;;;;;;;66.70;11.67;;;7.80;99.90;;;;;;5068348;28;20224;-85
2022/01/18 04:37:46;;;;;;;77.70;12.70;;;7.70;99.90;;;;;;5067882;28;20212;-85
2022/01/18 04:40:16;;;;;;;69.60;13.57;;;7.70;99.90;;;;;;5068438;28;20212;-85
2022/01/18 04:43:03;;;;;;;74.13;13.03;;;7.70;99.90;;;;;;5065996;28;20200;-85
2022/01/18 04:48:27;;;;;;;73.23;13.13;;;7.80;99.90;;;;;;5060955;28;20269;-86
2022/01/18 04:50:55;;;;;;;63.70;11.67;;;7.80;99.90;;;;;;5068903;28;20761;-86
2022/01/18 04:53:22;;;;;;;62.50;11.93;;;7.80;99.90;;;;;;5068657;28;20228;-85
2022/01/18 04:55:53;;;;;;;71.20;11.60;;;7.80;99.90;;;;;;5070516;28;20236;-87
2022/01/18 04:58:21;;;;;;;59.20;11.77;;;7.90;99.90;;;;;;5069949;28;20236;-85
2022/01/18 05:00:51;;;;;;;69.40;12.97;;;7.90;99.90;;;;;;5069454;28;20713;-86
2022/01/18 05:03:18;;;;;;;73.80;14.50;;;7.90;99.90;;;;;;5068805;28;20217;-87
2022/01/18 05:05:45;;;;;;;62.73;13.00;;;7.90;99.90;;;;;;5069440;28;20238;-85
2022/01/18 05:08:15;;;;;;;74.23;13.10;;;7.90;99.90;;;;;;5068162;28;20378;-87
2022/01/18 05:10:43;;;;;;;62.93;12.23;;;7.90;99.90;;;;;;5067562;28;20209;-88
2022/01/18 05:13:24;;;;;;;65.10;12.37;;;7.80;99.90;;;;;;5066914;28;20260;-84
2022/01/18 05:16:02;;;;;;;77.43;13.63;;;7.90;99.90;;;;;;5067403;28;20224;-85
2022/01/18 05:21:22;;;;;;;64.07;12.47;;;7.90;99.90;;;;;;5060758;28;20238;-86
2022/01/18 05:23:49;;;;;;;65.37;12.57;;;7.90;99.90;;;;;;5072936;28;20200;-85
2022/01/18 05:26:16;;;;;;;64.20;12.50;;;7.90;99.90;;;;;;5069622;28;20199;-85
2022/01/18 05:28:43;;;;;;;69.33;13.20;;;7.90;99.90;;;;;;5070435;28;20208;-86
2022/01/18 05:31:11;;;;;;;67.17;13.33;;;7.90;99.90;;;;;;5070089;28;20219;-85
2022/01/18 05:33:40;;;;;;;74.50;15.13;;;7.80;99.90;;;;;;5068007;28;20248;-85
2022/01/18 05:36:07;;;;;;;53.73;10.30;;;7.80;99.90;;;;;;5070606;28;20229;-88
2022/01/18 05:38:35;;;;;;;65.53;13.17;;;7.80;99.90;;;;;;5067558;28;20676;-88
2022/01/18 05:41:02;;;;;;;61.30;12.73;;;7.80;99.90;;;;;;5065863;28;20208;-88
2022/01/18 05:43:29;;;;;;;58.87;12.43;;;7.80;99.90;;;;;;5067062;28;20201;-87
2022/01/18 05:45:56;;;;;;;75.60;14.43;;;7.70;99.90;;;;;;5066633;28;20580;-89
2022/01/18 05:48:31;;;;;;;58.70;12.50;;;7.70;99.90;;;;;;5067515;28;20244;-88
2022/01/18 05:50:59;;;;;;;68.33;13.33;;;7.70;99.90;;;;;;5064904;28;20212;-88
2022/01/18 05:53:26;;;;;;;65.20;13.80;;;7.70;99.90;;;;;;5067870;28;20734;-87
2022/01/18 05:55:53;;;;;;;64.53;13.60;;;;;;;;;;5066813;28;20227;-88
2022/01/18 05:58:21;;;;;;;65.03;13.50;;;;;;;;;;5067287;28;20241;-88
2022/01/18 06:00:52;;;;;;;55.03;12.20;;;7.70;99.90;;;;;;5068922;28;20229;-89
2022/01/18 06:03:26;;;;;;;83.73;14.50;;;7.70;99.90;;;;;;5068613;28;20202;-86
2022/01/18 06:08:39;;;;;;;61.47;13.77;;;8.50;99.90;;;;;;5066664;28;20773;-86
2022/01/18 06:11:06;;;;;;;65.03;12.97;;;7.80;99.90;;;;;;5066161;28;20216;-86
2022/01/18 06:13:33;;;;;;;77.37;14.90;;;7.80;99.90;;;;;;5065289;28;20232;-86
2022/01/18 06:16:00;;;;;;;68.20;14.13;;;7.70;99.90;;;;;;5071395;28;20262;-86
2022/01/18 06:18:27;;;;;;;76.83;16.07;;;7.80;99.90;;;;;;5068645;28;20208;-86
2022/01/18 06:20:55;;;;;;;72.27;15.27;;;7.90;99.90;;;;;;5068626;28;20209;-86
2022/01/18 06:23:22;;;;;;;63.73;12.40;;;7.80;99.90;;;;;;5068398;28;20205;-86
2022/01/18 06:25:49;;;;;;;81.77;15.87;;;7.70;99.90;;;;;;5068011;28;20282;-86
2022/01/18 06:28:16;;;;;;;72.63;14.40;;;7.70;99.90;;;;;;5069329;28;20689;-85
2022/01/18 06:30:43;;;;;;;65.57;13.93;;;8.00;99.90;;;;;;5068832;28;20584;-85
2022/01/18 06:33:10;;;;;;;71.10;14.00;;;7.70;99.90;;;;;;5070394;28;20289;-85
2022/01/18 06:35:37;;;;;;;65.77;14.40;;;7.70;99.90;;;;;;5068268;28;20486;-85
2022/01/18 06:38:05;;;;;;;62.13;12.63;;;7.90;99.90;;;;;;5067762;28;20268;-85
2022/01/18 06:40:35;;;;;;;69.57;15.33;;;7.60;99.90;;;;;;5070987;28;20270;-85
2022/01/18 06:43:03;;;;;;;69.23;13.40;;;;;;;;;;5069641;28;20205;-85
2022/01/18 06:45:30;;;;;;;50.73;11.03;;;7.60;99.90;;;;;;5070083;28;21031;-86
2022/01/18 06:47:57;;;;;;;64.17;12.90;;;7.60;99.90;;;;;;5070392;28;20691;-86
2022/01/18 06:50:24;;;;;;;70.37;14.40;;;7.70;99.90;;;;;;5069775;28;20213;-86
2022/01/18 06:52:51;;;;;;;72.37;13.30;;;7.60;99.90;;;;;;5072338;28;20227;-86
2022/01/18 06:55:19;;;;;;;57.53;12.27;;;7.60;99.90;;;;;;5073578;28;20216;-85
2022/01/18 06:57:46;;;;;;;62.17;13.17;;;7.50;99.90;;;;;;5069170;28;20212;-86
2022/01/18 07:00:14;;;;;;;60.80;12.67;;;8.90;99.90;;;;;;5071409;28;20211;-86
2022/01/18 07:02:42;;;;;;;87.07;16.37;;;7.60;99.90;;;;;;5070538;28;20208;-86
2022/01/18 07:05:11;;;;;;;73.73;15.00;;;7.50;99.90;;;;;;5063911;28;20256;-86
2022/01/18 07:07:38;;;;;;;64.83;13.30;;;7.40;99.90;;;;;;5068325;28;20209;-86
2022/01/18 07:10:06;;;;;;;70.93;14.77;;;7.50;99.90;;;;;;5071458;28;20262;-85
2022/01/18 07:12:35;;;;;;;68.30;14.03;;;7.50;99.90;;;;;;5073855;28;20216;-85
2022/01/18 07:15:03;;;;;;;60.10;13.63;;;7.50;99.90;;;;;;5076672;28;20236;-86
2022/01/18 07:17:34;;;;;;;78.60;15.73;;;7.50;99.90;;;;;;5087800;28;20188;-86
2022/01/18 07:20:04;;;;;;;62.53;13.63;;;7.50;99.90;;;;;;5095500;28;20197;-86
2022/01/18 07:22:31;;;;;;;60.43;13.23;;;7.50;99.90;;;;;;5088771;28;20237;-86
2022/01/18 07:24:59;;;;;;;59.27;13.47;;;7.40;99.90;;;;;;5073846;28;20213;-86
2022/01/18 07:27:26;;;;;;;74.90;14.90;;;7.40;99.90;;;;;;5073521;28;20209;-85
2022/01/18 07:29:56;;;;;;;63.30;14.50;;;;;;;;;;5078284;28;20216;-89
2022/01/18 07:32:23;;;;;;;57.33;13.87;;;7.40;99.90;;;;;;5076602;28;20767;-88
2022/01/18 07:34:52;;;;;;;54.20;13.63;;;7.40;99.90;;;;;;5076313;28;20259;-90
2022/01/18 07:37:20;;;;;;;48.17;13.03;;;7.40;99.90;;;;;;5069814;28;20209;-88
2022/01/18 07:39:48;;;;;;;64.33;14.00;;;;;;;;;;5075161;28;20273;-89
2022/01/18 07:42:16;;;;;;;52.97;13.00;;;;;;;;;;5073469;28;20239;-89
2022/01/18 07:44:43;;;;;;;69.97;15.57;;;;;;;;;;5079687;28;20217;-93
2022/01/18 07:47:11;;;;;;;79.33;16.83;;;7.40;99.90;;;;;;5092950;28;20187;-93
2022/01/18 07:49:41;;;;;;;59.57;15.23;;;7.40;99.90;;;;;;5093582;28;20219;-92
2022/01/18 07:52:08;;;;;;;55.27;14.07;;;7.40;99.90;;;;;;5094986;28;20207;-92
2022/01/18 07:54:35;;;;;;;66.97;14.63;;;;;;;;;;5096925;28;20240;-93
2022/01/18 07:57:24;;;;;;;48.87;12.97;;;7.50;99.90;;;;;;5081559;28;20197;-92
2022/01/18 07:59:51;;;;;;;52.90;13.63;;;7.60;99.90;;;;;;5077748;28;20202;-90
2022/01/18 08:02:33;;;;;;;66.33;13.53;;;7.60;99.90;;;;;;5081761;28;20204;-90
2022/01/18 08:05:01;;;;;;;41.70;12.00;;;;;;;;;;5080641;28;20713;-90
2022/01/18 08:07:28;;;;;;;54.63;13.33;;;;;;;;;;5084853;28;20235;-90
2022/01/18 08:09:56;;;;;;;47.17;12.67;;;;;;;;;;5080038;28;20209;-90
2022/01/18 08:12:24;;;;;;;49.93;12.80;;;;;;;;;;5080626;28;20200;-90
2022/01/18 08:14:54;;;;;;;47.13;12.23;;;;;;;;;;5080038;28;20331;-90
2022/01/18 08:17:22;;;;;;;54.73;14.27;;;;;;;;;;5079245;28;20203;-90
2022/01/18 08:19:51;;;;;;;57.37;15.00;;;;;;;;;;5078087;28;20208;-91
2022/01/18 08:22:18;;;;;;;44.50;12.57;;;;;;;;;;5079211;28;20304;-91
2022/01/18 08:24:45;;;;;;;53.33;14.03;;;8.10;99.90;;;;;;5078325;28;20224;-89
2022/01/18 08:27:13;;;;;;;64.23;15.03;;;;;;;;;;5076561;28;20209;-90
2022/01/18 08:29:56;;;;;;;56.93;13.90;;;8.20;99.90;;;;;;5081741;28;20203;-91
2022/01/18 08:32:23;;;;;;;60.43;14.60;;;8.30;99.90;;;;;;5078216;28;20287;-91
2022/01/18 08:34:54;;;;;;;57.47;14.30;;;;;;;;;;5077455;28;20232;-91
2022/01/18 08:37:21;;;;;;;54.63;15.07;;;;;;;;;;5077550;28;20285;-90
2022/01/18 08:39:48;;;;;;;50.97;14.63;;;;;;;;;;5077732;28;20260;-91
2022/01/18 08:42:16;;;;;;;47.53;14.80;;;8.40;99.90;;;;;;5078958;28;20210;-91
2022/01/18 08:44:43;;;;;;;61.57;15.80;;;;;;;;;;5079042;28;20229;-91
2022/01/18 08:47:11;;;;;;;48.50;14.33;;;;;;;;;;5078526;28;20204;-91
2022/01/18 08:49:38;;;;;;;64.73;15.73;;;8.60;99.90;;;;;;5077203;28;20640;-90
2022/01/18 08:52:07;;;;;;;64.20;16.60;;;;;;;;;;5076936;28;20206;-91
2022/01/18 08:54:35;;;;;;;73.33;17.33;;;;;;;;;;5077763;28;20230;-91
2022/01/18 08:57:02;;;;;;;62.10;16.33;;;;;;;;;;5077281;28;20270;-90
2022/01/18 08:59:30;;;;;;;63.23;15.83;;;8.90;99.90;;;;;;5075253;28;20211;-90
2022/01/18 09:01:59;;;;;;;62.87;16.63;;;10.30;99.90;;;;;;5076942;28;20234;-90
2022/01/18 09:04:26;;;;;;;64.97;15.20;;;8.90;99.90;;;;;;5076232;28;20220;-91
2022/01/18 09:07:01;;;;;;;48.10;14.00;;;8.90;99.90;;;;;;5078025;28;20270;-91
2022/01/18 09:09:30;;;;;;;60.73;16.23;;;8.90;99.90;;;;;;5076588;28;20248;-90
2022/01/18 09:11:57;;;;;;;56.53;15.57;;;8.90;99.90;;;;;;5077709;28;20210;-91
2022/01/18 09:14:24;;;;;;;66.50;16.33;;;9.00;99.90;;;;;;5079464;28;20736;-91
2022/01/18 09:16:52;;;;;;;63.40;16.27;;;9.00;99.90;;;;;;5077114;28;20208;-92
2022/01/18 09:19:19;;;;;;;59.73;15.93;;;9.10;99.90;;;;;;5078921;28;20726;-92
2022/01/18 09:21:48;;;;;;;55.23;15.37;;;;;;;;;;5077862;28;20633;-91
2022/01/18 09:24:19;;;;;;;63.77;15.90;;;9.20;99.90;;;;;;5074394;28;20301;-92
2022/01/18 09:26:48;;;;;;;51.87;13.63;;;;;;;;;;5079224;28;20563;-92
2022/01/18 09:29:16;;;;;;;51.47;14.47;;;;;;;;;;5079814;28;20210;-92
2022/01/18 09:31:48;;;;;;;67.20;16.77;;;9.30;99.90;;;;;;5080993;28;20294;-92
2022/01/18 09:34:15;;;;;;;53.20;15.10;;;9.50;99.90;;;;;;5081505;28;20772;-92
2022/01/18 09:36:58;;;;;;;50.70;13.97;;;10.50;99.90;;;;;;5078342;28;20341;-91
2022/01/18 09:39:25;;;;;;;60.83;16.27;;;;;;;;;;5079376;28;20215;-92
2022/01/18 09:41:58;;;;;;;64.00;15.17;;;10.00;99.90;;;;;;5079610;28;20203;-91
2022/01/18 09:44:26;;;;;;;65.93;15.13;;;10.10;99.90;;;;;;5081947;28;20227;-90
2022/01/18 09:46:54;;;;;;;62.73;16.07;;;10.10;99.90;;;;;;5085279;28;20270;-91
2022/01/18 09:49:22;;;;;;;65.30;16.77;;;;;;;;;;5083924;28;20225;-91
2022/01/18 09:51:50;;;;;;;60.90;15.30;;;;;;;;;;5085589;28;20204;-90
2022/01/18 09:54:17;;;;;;;69.27;17.73;;;;;;;;;;5076079;28;20317;-91
2022/01/18 09:56:44;;;;;;;60.43;16.27;;;10.30;99.90;;;;;;5082450;28;20224;-91
2022/01/18 09:59:13;;;;;;;58.70;16.13;;;10.30;99.90;;;;;;5083992;28;20231;-91
2022/01/18 10:01:40;;;;;;;59.87;15.47;;;;;;;;;;5085336;28;20693;-91
2022/01/18 10:04:16;;;;;;;58.93;16.80;;;10.40;99.90;;;;;;5087246;28;20220;-91
2022/01/18 10:06:55;;;;;;;68.90;17.70;;;;;;;;;;5090396;28;20190;-92
2022/01/18 10:09:23;;;;;;;48.27;14.67;;;;;;;;;;5101913;28;20219;-91
2022/01/18 10:12:11;;;;;;;55.80;15.80;;;10.60;99.90;;;;;;5083493;28;20200;-91
2022/01/18 10:14:41;;;;;;;55.93;17.13;;;10.80;99.90;;;;;;5082139;28;20236;-91
2022/01/18 10:17:11;;;;;;;56.07;16.37;;;10.80;99.90;;;;;;5077098;28;20207;-91
2022/01/18 10:19:43;;;;;;;50.57;15.67;;;10.80;99.90;;;;;;5072635;28;20860;-90
2022/01/18 10:22:14;;;;;;;61.37;16.90;;;11.40;99.90;;;;;;5078419;28;20207;-91
2022/01/18 10:24:45;;;;;;;67.00;19.93;;;10.70;99.90;;;;;;5077561;28;20232;-91
2022/01/18 10:27:14;;;;;;;66.23;19.80;;;10.80;99.90;;;;;;5079059;28;20984;-91
2022/01/18 10:29:45;;;;;;;60.00;19.27;;;10.80;99.90;;;;;;5076549;28;20212;-91
2022/01/18 10:32:17;;;;;;;70.00;21.23;;;10.90;99.90;;;;;;5077483;28;20197;-92
2022/01/18 10:37:33;;;;;;;71.67;22.50;;;10.90;99.90;;;;;;5077010;28;20232;-91
2022/01/18 10:40:02;;;;;;;62.63;21.03;;;10.80;99.90;;;;;;5082142;28;20212;-90
2022/01/18 10:42:36;;;;;;;77.30;24.47;;;10.70;99.90;;;;;;5077999;28;20204;-91
2022/01/18 10:45:09;;;;;;;72.33;23.70;;;10.70;99.90;;;;;;5075770;28;20231;-92
2022/01/18 10:47:37;;;;;;;74.57;24.13;;;10.70;99.90;;;;;;5076666;28;20231;-92
2022/01/18 10:50:10;;;;;;;59.07;19.07;;;10.70;99.90;;;;;;5075864;28;20299;-92
2022/01/18 10:52:38;;;;;;;70.83;24.20;;;;;;;;;;5079645;28;20272;-92
2022/01/18 10:55:09;;;;;;;73.77;25.00;;;10.90;99.90;;;;;;5069124;28;20723;-92
2022/01/18 10:57:39;;;;;;;72.00;24.70;;;11.10;99.90;;;;;;5071602;28;20378;-92
2022/01/18 11:00:12;;;;;;;66.17;22.93;;;11.20;99.90;;;;;;5077370;28;20223;-93
2022/01/18 11:02:43;;;;;;;73.43;24.37;;;11.20;99.90;;;;;;5078290;28;20212;-92
2022/01/18 11:05:16;;;;;;;73.97;25.20;;;11.20;99.90;;;;;;5071282;28;20227;-92
2022/01/18 11:07:44;;;;;;;69.83;24.27;;;11.20;99.90;;;;;;5071270;28;20291;-92
2022/01/18 11:10:13;;;;;;;64.53;24.67;;;11.30;99.90;;;;;;5086137;28;20632;-91
2022/01/18 11:12:49;;;;;;;77.67;24.33;;;;;;;;;;5080945;28;20296;-91
2022/01/18 11:15:27;;;;;;;82.77;26.83;;;;;;;;;;5079525;28;20277;-92
2022/01/18 11:18:00;;;;;;;71.97;23.70;;;11.70;99.90;;;;;;5079341;28;20288;-91
2022/01/18 11:20:29;;;;;;;75.63;26.30;;;;;;;;;;5082246;28;20205;-91
2022/01/18 11:22:57;;;;;;;83.60;26.87;;;11.70;99.90;;;;;;5072897;28;20223;-91
2022/01/18 11:25:24;;;;;;;77.97;26.13;;;11.70;99.90;;;;;;5072690;28;20220;-90
2022/01/18 11:27:53;;;;;;;68.87;23.00;;;11.60;99.90;;;;;;5072216;28;20660;-91
2022/01/18 11:30:21;;;;;;;79.67;25.20;;;11.60;99.90;;;;;;5072501;28;20951;-91
2022/01/18 11:32:54;;;;;;;74.93;26.03;;;11.40;99.90;;;;;;5071388;28;20218;-91
2022/01/18 11:35:27;;;;;;;67.43;21.60;;;11.40;99.90;;;;;;5072522;28;20310;-91
2022/01/18 11:38:03;;;;;;;69.60;23.30;;;11.50;99.90;;;;;;5081303;28;20205;-91
2022/01/18 11:40:44;;;;;;;71.47;23.93;;;11.40;99.90;;;;;;5075179;28;20241;-91
2022/01/18 11:43:12;;;;;;;75.73;24.00;;;;;;;;;;5074442;28;20211;-91
2022/01/18 11:45:41;;;;;;;82.27;25.60;;;11.60;99.90;;;;;;5080478;28;20223;-91
2022/01/18 11:48:13;;;;;;;71.13;23.00;;;11.70;99.90;;;;;;5072994;28;20213;-92
2022/01/18 11:50:44;;;;;;;74.17;23.97;;;11.80;99.90;;;;;;5072312;28;20664;-92
2022/01/18 11:53:37;;;;;;;71.00;23.87;;;11.80;99.90;;;;;;5074546;28;20581;-91
2022/01/18 11:56:07;;;;;;;66.73;21.03;;;11.80;99.90;;;;;;5074111;28;20232;-91
2022/01/18 11:58:34;;;;;;;69.50;20.30;;;11.70;99.90;;;;;;5074411;28;20201;-91
2022/01/18 12:01:03;;;;;;;52.93;16.10;;;11.70;99.90;;;;;;5073399;28;20699;-91
2022/01/18 12:03:44;;;;;;;63.63;18.67;;;11.60;99.90;;;;;;5077410;28;20293;-91
2022/01/18 12:06:11;;;;;;;59.23;17.73;;;11.50;99.90;;;;;;5072705;28;20254;-91
2022/01/18 12:08:40;;;;;;;73.30;21.10;;;11.60;99.90;;;;;;5070825;28;20304;-90
2022/01/18 12:11:36;;;;;;;69.93;18.97;;;11.60;99.90;;;;;;5073306;28;20556;-90
2022/01/18 12:14:04;;;;;;;70.20;19.60;;;11.70;99.90;;;;;;5074451;28;20302;-94
2022/01/18 12:16:31;;;;;;;60.67;18.83;;;11.80;99.90;;;;;;5074458;28;20238;-93
2022/01/18 12:19:06;;;;;;;55.97;18.30;;;11.80;99.90;;;;;;5074429;28;20200;-90
2022/01/18 12:21:35;;;;;;;49.70;15.97;;;11.90;99.90;;;;;;5072525;28;20204;-92
2022/01/18 12:24:17;;;;;;;58.47;18.40;;;11.90;99.90;;;;;;5073112;28;20228;-91
2022/01/18 12:26:59;;;;;;;57.27;17.17;;;11.90;99.90;;;;;;5073487;28;20575;-92
2022/01/18 12:30:00;;;;;;;51.93;17.13;;;12.00;99.90;;;;;;5063221;28;20200;-92
2022/01/18 12:32:56;;;;;;;49.57;16.63;;;13.10;99.90;;;;;;5074038;28;20747;-92
2022/01/18 12:35:27;;;;;;;54.10;16.37;;;;;;;;;;5074849;28;20236;-92
2022/01/18 12:37:55;;;;;;;57.20;17.73;;;12.30;99.90;;;;;;5074542;28;20200;-91
2022/01/18 12:40:42;;;;;;;56.70;18.67;;;12.30;99.90;;;;;;5071961;28;20208;-91
2022/01/18 12:45:59;;;;;;;43.20;15.00;;;12.40;99.90;;;;;;5068789;28;20219;-91
2022/01/18 12:48:26;;;;;;;51.67;15.30;;;;;;;;;;5084300;28;20215;-91
2022/01/18 12:51:02;;;;;;;55.00;16.37;;;12.40;99.90;;;;;;5078435;28;20196;-92
2022/01/18 12:53:36;;;;;;;59.00;17.97;;;12.30;99.90;;;;;;5072783;28;20228;-92
2022/01/18 12:56:05;;;;;;;54.27;15.93;;;12.30;99.90;;;;;;5091880;28;20251;-92
2022/01/18 12:58:35;;;;;;;46.03;15.67;;;;;;;;;;5072635;28;20278;-92
2022/01/18 13:01:04;;;;;;;49.50;14.80;;;12.30;99.90;;;;;;5074486;28;20243;-92
2022/01/18 13:03:34;;;;;;;49.37;15.20;;;12.30;99.90;;;;;;5074258;28;20204;-92
2022/01/18 13:06:05;;;;;;;57.57;15.67;;;12.00;99.90;;;;;;5079533;28;20247;-93
2022/01/18 13:08:44;;;;;;;46.73;13.93;;;12.00;99.90;;;;;;5077731;28;20693;-92
2022/01/18 13:11:13;;;;;;;47.20;12.53;;;11.90;99.90;;;;;;5076139;28;20196;-92
2022/01/18 13:13:40;;;;;;;43.90;12.70;;;13.60;99.90;;;;;;5075697;28;20193;-92
2022/01/18 13:27:41;;;;;;;43.00;12.73;;;11.60;99.90;;;;;;5054670;28;20214;-90
2022/01/18 13:30:17;;;;;;;39.30;12.87;;;13.80;99.90;;;;;;5079130;28;20200;-90
2022/01/18 13:32:45;;;;;;;50.30;13.63;;;11.30;99.90;;;;;;5072956;28;20203;-90
2022/01/18 13:35:14;;;;;;;46.83;13.43;;;11.20;99.90;;;;;;5071354;28;20228;-91
2022/01/18 13:37:43;;;;;;;46.07;13.27;;;;;;;;;;5071541;28;20215;-90
2022/01/18 13:40:14;;;;;;;49.70;14.37;;;11.10;99.90;;;;;;5072824;28;20203;-90
2022/01/18 13:42:44;;;;;;;39.57;12.50;;;11.10;99.90;;;;;;5076410;28;20192;-89
2022/01/18 13:45:16;;;;;;;40.23;11.63;;;11.10;99.90;;;;;;5054477;28;20251;-91
2022/01/18 13:47:50;;;;;;;40.33;11.47;;;11.00;99.90;;;;;;5071167;28;20210;-91
2022/01/18 13:50:50;;;;;;;40.03;11.87;;;10.90;99.90;;;;;;5074910;28;20192;-91
2022/01/18 13:53:25;;;;;;;51.53;14.73;;;10.60;99.90;;;;;;5095572;28;20226;-95
2022/01/18 13:55:56;;;;;;;55.77;14.67;;;10.60;99.90;;;;;;5086837;28;20224;-91
2022/01/18 13:58:25;;;;;;;46.17;12.37;;;10.50;99.90;;;;;;5079955;28;20295;-91
2022/01/18 14:00:53;;;;;;;47.20;13.43;;;11.00;99.90;;;;;;5075558;28;20301;-90
2022/01/18 14:03:34;;;;;;;46.20;11.87;;;10.20;99.90;;;;;;5080982;28;20210;-91
2022/01/18 14:06:01;;;;;;;52.37;13.30;;;;;;;;;;5077443;28;20242;-90
2022/01/18 14:08:35;;;;;;;53.53;13.70;;;10.20;99.90;;;;;;5075495;28;20235;-91